Time;durP1;ratioP1;P1;durP2;ratioP2;P2;SDS_P1;SDS_P2;PMS_P1;PMS_P2;Temp;Humidity;BMP_temperature;BMP_pressure;BME280_temperature;BME280_humidity;BME280_pressure;Samples;Min_cycle;Max_cycle;Signal;HPM_P1;HPM_P2
2020/09/09 00:00:23;;;;;;;1.84;1.50;;;;;;;20.53;63.81;101279.04;;;;-53
2020/09/09 00:03:23;;;;;;;2.16;1.45;;;;;;;20.52;63.85;101278.69;;;;-53
2020/09/09 00:06:23;;;;;;;1.63;1.30;;;;;;;20.51;63.80;101277.70;;;;-52
2020/09/09 00:09:23;;;;;;;1.60;1.50;;;;;;;20.50;63.87;101278.20;;;;-53
2020/09/09 00:12:23;;;;;;;1.55;1.36;;;;;;;20.50;63.86;101284.39;;;;-54
2020/09/09 00:15:23;;;;;;;2.49;1.39;;;;;;;20.51;63.86;101285.28;;;;-53
2020/09/09 00:18:23;;;;;;;1.50;1.40;;;;;;;20.49;63.84;101279.55;;;;-52
2020/09/09 00:21:23;;;;;;;1.54;1.37;;;;;;;20.49;63.89;101279.62;;;;-53
2020/09/09 00:24:23;;;;;;;1.45;1.31;;;;;;;20.48;63.89;101271.21;;;;-53
2020/09/09 00:27:23;;;;;;;1.84;1.31;;;;;;;20.47;63.87;101267.55;;;;-53
2020/09/09 00:30:23;;;;;;;1.35;1.25;;;;;;;20.47;63.87;101267.95;;;;-53
2020/09/09 00:33:23;;;;;;;1.43;1.33;;;;;;;20.47;63.90;101268.69;;;;-52
2020/09/09 00:36:23;;;;;;;1.88;1.40;;;;;;;20.46;63.91;101265.67;;;;-53
2020/09/09 00:39:23;;;;;;;1.43;1.31;;;;;;;20.47;63.90;101261.77;;;;-53
2020/09/09 00:42:23;;;;;;;2.45;1.46;;;;;;;20.45;63.91;101262.88;;;;-53
2020/09/09 00:45:23;;;;;;;1.57;1.41;;;;;;;20.46;63.88;101264.62;;;;-53
2020/09/09 00:48:23;;;;;;;1.50;1.40;;;;;;;20.46;63.89;101263.13;;;;-53
2020/09/09 00:51:23;;;;;;;1.37;1.24;;;;;;;20.45;63.91;101261.49;;;;-53
2020/09/09 00:54:23;;;;;;;1.79;1.48;;;;;;;20.44;63.92;101256.04;;;;-53
2020/09/09 00:57:23;;;;;;;1.40;1.30;;;;;;;20.44;63.90;101254.66;;;;-53
2020/09/09 01:00:23;;;;;;;1.47;1.37;;;;;;;20.44;63.95;101247.78;;;;-53
2020/09/09 01:03:23;;;;;;;1.35;1.25;;;;;;;20.44;63.90;101245.17;;;;-54
2020/09/09 01:06:23;;;;;;;1.34;1.24;;;;;;;20.44;63.92;101241.43;;;;-53
2020/09/09 01:09:23;;;;;;;1.56;1.39;;;;;;;20.44;63.89;101237.20;;;;-53
2020/09/09 01:12:23;;;;;;;1.45;1.35;;;;;;;20.42;63.91;101227.42;;;;-53
2020/09/09 01:15:23;;;;;;;1.59;1.43;;;;;;;20.43;63.91;101227.59;;;;-53
2020/09/09 01:18:23;;;;;;;1.49;1.33;;;;;;;20.42;63.92;101226.86;;;;-54
2020/09/09 01:21:23;;;;;;;1.40;1.30;;;;;;;20.41;63.93;101222.27;;;;-52
2020/09/09 01:24:23;;;;;;;1.40;1.30;;;;;;;20.42;63.90;101222.63;;;;-53
2020/09/09 01:27:23;;;;;;;1.50;1.40;;;;;;;20.42;63.90;101224.79;;;;-58
2020/09/09 01:30:23;;;;;;;1.59;1.34;;;;;;;20.42;63.92;101225.28;;;;-57
2020/09/09 01:33:23;;;;;;;1.44;1.34;;;;;;;20.41;63.92;101217.38;;;;-57
2020/09/09 01:36:23;;;;;;;1.89;1.43;;;;;;;20.42;63.89;101218.84;;;;-57
2020/09/09 01:39:23;;;;;;;1.45;1.35;;;;;;;20.42;63.88;101214.94;;;;-57
2020/09/09 01:42:23;;;;;;;1.40;1.30;;;;;;;20.41;63.89;101214.78;;;;-57
2020/09/09 01:45:23;;;;;;;1.55;1.33;;;;;;;20.41;63.84;101210.88;;;;-57
2020/09/09 01:48:23;;;;;;;1.39;1.26;;;;;;;20.41;63.85;101205.17;;;;-57
2020/09/09 01:51:23;;;;;;;1.93;1.40;;;;;;;20.41;63.89;101199.39;;;;-58
2020/09/09 01:54:23;;;;;;;1.40;1.30;;;;;;;20.41;63.91;101198.00;;;;-57
2020/09/09 01:57:23;;;;;;;1.67;1.30;;;;;;;20.41;63.90;101194.99;;;;-57
2020/09/09 02:00:23;;;;;;;1.33;1.23;;;;;;;20.41;63.87;101195.73;;;;-57
2020/09/09 02:03:23;;;;;;;1.40;1.30;;;;;;;20.39;63.92;101190.08;;;;-57
2020/09/09 02:06:23;;;;;;;1.55;1.30;;;;;;;20.39;63.89;101188.20;;;;-57
2020/09/09 02:09:23;;;;;;;1.55;1.45;;;;;;;20.38;63.94;101187.72;;;;-57
2020/09/09 02:12:23;;;;;;;1.40;1.30;;;;;;;20.39;63.92;101193.26;;;;-57
2020/09/09 02:15:23;;;;;;;1.41;1.31;;;;;;;20.39;63.89;101193.09;;;;-57
2020/09/09 02:18:23;;;;;;;1.47;1.37;;;;;;;20.39;63.90;101191.05;;;;-57
2020/09/09 02:21:23;;;;;;;1.37;1.27;;;;;;;20.39;63.90;101193.34;;;;-57
2020/09/09 02:24:23;;;;;;;1.48;1.38;;;;;;;20.39;63.91;101193.66;;;;-57
2020/09/09 02:27:23;;;;;;;1.64;1.46;;;;;;;20.38;63.88;101189.52;;;;-57
2020/09/09 02:30:23;;;;;;;1.53;1.43;;;;;;;20.38;63.90;101192.36;;;;-57
2020/09/09 02:33:23;;;;;;;1.40;1.30;;;;;;;20.38;63.87;101194.97;;;;-57
2020/09/09 02:36:23;;;;;;;1.40;1.30;;;;;;;20.38;63.90;101194.72;;;;-57
2020/09/09 02:39:23;;;;;;;1.40;1.30;;;;;;;20.37;63.91;101195.83;;;;-57
2020/09/09 02:42:23;;;;;;;1.45;1.35;;;;;;;20.38;63.86;101196.43;;;;-57
2020/09/09 02:45:23;;;;;;;1.73;1.20;;;;;;;20.38;63.86;101194.36;;;;-57
2020/09/09 02:48:23;;;;;;;1.35;1.25;;;;;;;20.37;63.89;101192.81;;;;-57
2020/09/09 02:51:23;;;;;;;1.45;1.30;;;;;;;20.37;63.91;101195.91;;;;-57
2020/09/09 02:54:23;;;;;;;1.53;1.40;;;;;;;20.37;63.87;101199.58;;;;-57
2020/09/09 02:57:23;;;;;;;1.48;1.38;;;;;;;20.37;63.86;101201.61;;;;-57
2020/09/09 03:00:23;;;;;;;1.40;1.30;;;;;;;20.36;63.92;101204.22;;;;-57
2020/09/09 03:03:23;;;;;;;1.40;1.30;;;;;;;20.37;63.89;101205.44;;;;-57
2020/09/09 03:06:23;;;;;;;1.50;1.40;;;;;;;20.35;63.95;101201.91;;;;-57
2020/09/09 03:09:23;;;;;;;1.40;1.30;;;;;;;20.36;63.95;101201.17;;;;-57
2020/09/09 03:12:23;;;;;;;1.45;1.35;;;;;;;20.35;63.89;101198.89;;;;-57
2020/09/09 03:15:23;;;;;;;1.54;1.43;;;;;;;20.36;63.88;101198.24;;;;-57
2020/09/09 03:18:23;;;;;;;1.30;1.20;;;;;;;20.36;63.92;101195.96;;;;-57
2020/09/09 03:21:23;;;;;;;1.30;1.20;;;;;;;20.35;63.91;101191.08;;;;-57
2020/09/09 03:24:23;;;;;;;1.40;1.30;;;;;;;20.36;63.87;101192.66;;;;-57
2020/09/09 03:27:23;;;;;;;1.50;1.40;;;;;;;20.35;63.89;101190.02;;;;-57
2020/09/09 03:30:23;;;;;;;1.51;1.41;;;;;;;20.34;63.89;101190.67;;;;-56
2020/09/09 03:33:23;;;;;;;1.40;1.30;;;;;;;20.34;63.94;101195.07;;;;-57
2020/09/09 03:36:23;;;;;;;1.50;1.40;;;;;;;20.34;63.90;101193.28;;;;-57
2020/09/09 03:39:23;;;;;;;1.40;1.30;;;;;;;20.34;63.91;101190.84;;;;-57
2020/09/09 03:42:23;;;;;;;1.40;1.30;;;;;;;20.34;63.89;101190.11;;;;-57
2020/09/09 03:45:23;;;;;;;1.50;1.40;;;;;;;20.34;63.87;101187.34;;;;-57
2020/09/09 03:48:23;;;;;;;1.41;1.31;;;;;;;20.33;63.90;101182.66;;;;-57
2020/09/09 03:51:23;;;;;;;1.40;1.30;;;;;;;20.33;63.88;101184.95;;;;-57
2020/09/09 03:54:23;;;;;;;1.40;1.30;;;;;;;20.34;63.94;101183.91;;;;-57
2020/09/09 03:57:23;;;;;;;1.51;1.40;;;;;;;20.33;63.90;101178.34;;;;-57
2020/09/09 04:00:23;;;;;;;2.34;1.39;;;;;;;20.33;64.22;101176.23;;;;-57
2020/09/09 04:03:23;;;;;;;3.11;2.29;;;;;;;20.21;58.72;101177.06;;;;-58
2020/09/09 04:06:23;;;;;;;3.93;2.79;;;;;;;20.04;57.80;101177.03;;;;-58
2020/09/09 04:09:23;;;;;;;3.09;2.58;;;;;;;19.84;57.61;101173.88;;;;-58
2020/09/09 04:12:23;;;;;;;3.21;2.66;;;;;;;19.69;58.08;101176.50;;;;-58
2020/09/09 04:15:23;;;;;;;4.37;2.80;;;;;;;19.65;58.03;101174.84;;;;-58
2020/09/09 04:18:23;;;;;;;4.76;2.75;;;;;;;19.62;57.04;101171.20;;;;-59
2020/09/09 04:21:23;;;;;;;5.63;3.00;;;;;;;19.54;56.95;101169.34;;;;-59
2020/09/09 04:24:23;;;;;;;3.53;2.71;;;;;;;19.41;56.89;101175.14;;;;-59
2020/09/09 04:27:23;;;;;;;3.81;2.78;;;;;;;19.35;56.94;101180.88;;;;-58
2020/09/09 04:30:23;;;;;;;3.99;2.80;;;;;;;19.32;57.49;101182.30;;;;-58
2020/09/09 04:33:23;;;;;;;5.00;2.86;;;;;;;19.24;57.36;101179.71;;;;-58
2020/09/09 04:36:23;;;;;;;3.21;2.74;;;;;;;19.23;57.10;101177.56;;;;-58
2020/09/09 04:39:23;;;;;;;3.15;2.80;;;;;;;19.18;57.09;101179.59;;;;-58
2020/09/09 04:42:23;;;;;;;3.39;2.80;;;;;;;19.12;57.61;101182.48;;;;-59
2020/09/09 04:45:23;;;;;;;5.12;2.81;;;;;;;19.05;57.44;101173.23;;;;-59
2020/09/09 04:48:23;;;;;;;3.23;2.93;;;;;;;18.96;57.42;101173.22;;;;-58
2020/09/09 04:51:23;;;;;;;4.31;3.13;;;;;;;19.04;57.20;101178.50;;;;-58
2020/09/09 04:54:23;;;;;;;3.75;3.01;;;;;;;18.99;57.22;101178.98;;;;-59
2020/09/09 04:57:23;;;;;;;4.97;3.01;;;;;;;18.93;57.29;101182.69;;;;-58
2020/09/09 05:00:23;;;;;;;3.54;3.15;;;;;;;18.82;57.53;101177.19;;;;-58
2020/09/09 05:03:23;;;;;;;4.29;3.12;;;;;;;18.82;57.39;101175.38;;;;-58
2020/09/09 05:06:23;;;;;;;3.70;3.10;;;;;;;18.75;57.63;101175.61;;;;-58
2020/09/09 05:09:23;;;;;;;3.75;3.02;;;;;;;18.73;57.59;101168.67;;;;-58
2020/09/09 05:12:23;;;;;;;3.79;3.15;;;;;;;18.73;57.77;101171.02;;;;-58
2020/09/09 05:15:23;;;;;;;3.57;3.02;;;;;;;18.64;57.92;101168.73;;;;-58
2020/09/09 05:18:23;;;;;;;3.79;3.31;;;;;;;18.59;57.85;101165.16;;;;-58
2020/09/09 05:21:23;;;;;;;4.46;3.37;;;;;;;18.58;58.13;101166.09;;;;-59
2020/09/09 05:24:23;;;;;;;4.01;3.13;;;;;;;18.55;58.19;101165.15;;;;-59
2020/09/09 05:27:23;;;;;;;3.83;3.17;;;;;;;18.53;58.22;101164.59;;;;-58
2020/09/09 05:30:23;;;;;;;3.49;2.93;;;;;;;18.48;58.97;101159.86;;;;-58
2020/09/09 05:33:23;;;;;;;5.03;3.23;;;;;;;18.53;58.72;101159.75;;;;-59
2020/09/09 05:36:23;;;;;;;5.01;3.28;;;;;;;18.48;58.65;101158.16;;;;-58
2020/09/09 05:39:23;;;;;;;3.60;3.10;;;;;;;18.48;58.69;101165.71;;;;-53
2020/09/09 05:42:23;;;;;;;5.15;3.20;;;;;;;18.45;59.14;101166.06;;;;-53
2020/09/09 05:45:23;;;;;;;5.97;3.59;;;;;;;18.52;58.92;101167.09;;;;-53
2020/09/09 05:48:23;;;;;;;4.79;3.46;;;;;;;18.48;59.20;101167.41;;;;-53
2020/09/09 05:51:23;;;;;;;7.52;3.41;;;;;;;18.47;58.99;101164.57;;;;-53
2020/09/09 05:54:23;;;;;;;5.35;3.33;;;;;;;18.48;58.78;101163.20;;;;-54
2020/09/09 05:57:23;;;;;;;6.12;3.57;;;;;;;18.38;58.87;101166.05;;;;-52
2020/09/09 06:00:23;;;;;;;6.24;3.38;;;;;;;18.40;58.82;101168.05;;;;-54
2020/09/09 06:03:23;;;;;;;10.29;3.39;;;;;;;18.42;59.32;101167.84;;;;-47
2020/09/09 06:06:23;;;;;;;7.51;2.85;;;;;;;18.52;59.71;101164.91;;;;-47
2020/09/09 06:09:23;;;;;;;5.77;3.13;;;;;;;18.61;59.79;101167.77;;;;-47
2020/09/09 06:12:23;;;;;;;7.09;2.92;;;;;;;18.69;59.78;101169.31;;;;-48
2020/09/09 06:15:23;;;;;;;5.31;2.75;;;;;;;18.75;59.89;101168.87;;;;-48
2020/09/09 06:18:23;;;;;;;5.31;2.75;;;;;;;18.81;59.91;101161.08;;;;-48
2020/09/09 06:21:23;;;;;;;3.91;2.61;;;;;;;18.86;59.94;101159.78;;;;-48
2020/09/09 06:24:23;;;;;;;3.28;2.67;;;;;;;18.90;60.13;101158.08;;;;-48
2020/09/09 06:27:23;;;;;;;5.39;2.65;;;;;;;18.94;60.14;101158.41;;;;-47
2020/09/09 06:30:23;;;;;;;3.07;2.50;;;;;;;18.98;60.12;101155.23;;;;-58
2020/09/09 06:33:23;;;;;;;4.27;2.55;;;;;;;19.01;60.21;101152.38;;;;-58
2020/09/09 06:36:23;;;;;;;3.26;2.52;;;;;;;19.04;60.22;101146.58;;;;-58
2020/09/09 06:39:23;;;;;;;4.73;2.67;;;;;;;19.06;60.32;101153.84;;;;-58
2020/09/09 06:42:23;;;;;;;3.01;2.42;;;;;;;19.08;60.36;101150.88;;;;-58
2020/09/09 06:45:23;;;;;;;3.87;2.41;;;;;;;19.10;60.38;101144.34;;;;-58
2020/09/09 06:48:23;;;;;;;3.68;2.46;;;;;;;19.12;60.46;101150.06;;;;-58
2020/09/09 06:51:23;;;;;;;3.05;2.43;;;;;;;19.14;60.46;101153.03;;;;-58
2020/09/09 06:54:23;;;;;;;3.87;2.63;;;;;;;19.15;60.52;101151.00;;;;-58
2020/09/09 06:57:23;;;;;;;2.68;2.47;;;;;;;19.17;60.62;101147.91;;;;-58
2020/09/09 07:00:23;;;;;;;3.50;2.43;;;;;;;19.19;60.61;101154.73;;;;-58
2020/09/09 07:03:23;;;;;;;2.79;2.41;;;;;;;19.20;60.70;101155.83;;;;-58
2020/09/09 07:06:23;;;;;;;3.16;2.28;;;;;;;19.21;60.65;101150.30;;;;-58
2020/09/09 07:09:23;;;;;;;4.11;2.43;;;;;;;19.23;60.70;101150.50;;;;-58
2020/09/09 07:12:23;;;;;;;3.23;2.33;;;;;;;19.24;60.71;101148.75;;;;-58
2020/09/09 07:15:23;;;;;;;2.55;2.23;;;;;;;19.25;60.72;101146.40;;;;-58
2020/09/09 07:18:23;;;;;;;3.02;2.31;;;;;;;19.27;60.75;101142.86;;;;-58
2020/09/09 07:21:23;;;;;;;3.77;2.43;;;;;;;19.28;60.78;101145.50;;;;-58
2020/09/09 07:24:23;;;;;;;4.49;2.41;;;;;;;19.29;60.83;101148.50;;;;-61
2020/09/09 07:27:23;;;;;;;4.68;2.46;;;;;;;19.33;61.12;101153.86;;;;-61
2020/09/09 07:30:23;;;;;;;6.65;2.40;;;;;;;19.37;61.12;101152.06;;;;-56
2020/09/09 07:33:23;;;;;;;4.35;2.51;;;;;;;19.40;61.19;101150.56;;;;-58
2020/09/09 07:36:23;;;;;;;5.86;2.78;;;;;;;19.43;61.07;101154.20;;;;-57
2020/09/09 07:39:23;;;;;;;4.10;2.65;;;;;;;19.46;61.11;101158.39;;;;-58
2020/09/09 07:42:23;;;;;;;4.13;2.47;;;;;;;19.48;61.10;101157.53;;;;-48
2020/09/09 07:45:23;;;;;;;4.33;2.74;;;;;;;19.49;61.01;101156.10;;;;-49
2020/09/09 07:48:23;;;;;;;3.97;2.65;;;;;;;19.52;61.00;101159.15;;;;-48
2020/09/09 07:51:23;;;;;;;3.29;2.61;;;;;;;19.54;61.01;101160.56;;;;-51
2020/09/09 07:54:23;;;;;;;4.69;2.69;;;;;;;19.55;60.97;101161.17;;;;-46
2020/09/09 07:57:23;;;;;;;3.69;2.65;;;;;;;19.58;61.05;101162.67;;;;-50
2020/09/09 08:00:23;;;;;;;5.11;2.71;;;;;;;19.59;61.10;101168.48;;;;-53
2020/09/09 08:03:23;;;;;;;8.55;2.69;;;;;;;19.61;61.13;101170.52;;;;-53
2020/09/09 08:06:23;;;;;;;6.66;2.71;;;;;;;19.62;61.07;101168.19;;;;-58
2020/09/09 08:09:23;;;;;;;4.70;2.73;;;;;;;19.64;61.07;101164.48;;;;-58
2020/09/09 08:12:23;;;;;;;4.90;2.86;;;;;;;19.65;60.97;101161.34;;;;-58
2020/09/09 08:15:23;;;;;;;3.56;2.71;;;;;;;19.66;60.93;101165.25;;;;-58
2020/09/09 08:18:23;;;;;;;4.12;2.90;;;;;;;19.67;60.93;101165.09;;;;-56
2020/09/09 08:21:23;;;;;;;4.33;2.83;;;;;;;19.69;61.00;101164.23;;;;-54
2020/09/09 08:24:23;;;;;;;3.66;2.69;;;;;;;19.71;61.03;101161.28;;;;-57
2020/09/09 08:27:23;;;;;;;2.85;2.57;;;;;;;19.72;61.17;101158.39;;;;-56
2020/09/09 08:30:23;;;;;;;3.70;2.73;;;;;;;19.74;61.10;101159.08;;;;-46
2020/09/09 08:33:23;;;;;;;4.64;2.69;;;;;;;19.75;61.15;101160.38;;;;-48
2020/09/09 08:36:23;;;;;;;3.25;2.65;;;;;;;19.77;61.14;101163.66;;;;-51
2020/09/09 08:39:23;;;;;;;4.31;2.81;;;;;;;19.78;61.21;101156.62;;;;-51
2020/09/09 08:42:23;;;;;;;6.41;2.91;;;;;;;19.78;61.14;101153.61;;;;-49
2020/09/09 08:45:23;;;;;;;10.06;3.01;;;;;;;19.80;61.21;101151.94;;;;-52
2020/09/09 08:48:23;;;;;;;5.94;2.72;;;;;;;19.79;61.25;101148.48;;;;-51
2020/09/09 08:51:23;;;;;;;3.50;2.58;;;;;;;19.81;61.21;101151.86;;;;-59
2020/09/09 08:54:23;;;;;;;4.81;2.90;;;;;;;19.81;61.13;101145.75;;;;-57
2020/09/09 08:57:23;;;;;;;6.42;2.87;;;;;;;19.82;61.19;101145.70;;;;-58
2020/09/09 09:00:23;;;;;;;3.67;2.65;;;;;;;19.81;61.15;101141.52;;;;-59
2020/09/09 09:03:23;;;;;;;4.83;2.62;;;;;;;19.82;61.21;101141.31;;;;-58
2020/09/09 09:06:23;;;;;;;4.72;2.70;;;;;;;19.81;61.14;101136.56;;;;-58
2020/09/09 09:09:23;;;;;;;3.42;2.76;;;;;;;19.82;61.14;101130.47;;;;-57
2020/09/09 09:12:23;;;;;;;6.19;2.61;;;;;;;19.83;61.19;101127.89;;;;-58
2020/09/09 09:15:23;;;;;;;2.95;2.41;;;;;;;19.83;61.19;101129.52;;;;-59
2020/09/09 09:18:23;;;;;;;4.43;2.69;;;;;;;19.83;61.10;101123.34;;;;-52
2020/09/09 09:21:23;;;;;;;4.80;2.41;;;;;;;19.83;61.13;101120.81;;;;-59
2020/09/09 09:24:23;;;;;;;4.17;2.53;;;;;;;19.83;61.15;101120.33;;;;-57
2020/09/09 09:27:23;;;;;;;6.29;2.75;;;;;;;19.85;61.18;101116.38;;;;-57
2020/09/09 09:30:23;;;;;;;3.62;2.70;;;;;;;19.84;61.15;101113.41;;;;-59
2020/09/09 09:33:23;;;;;;;3.27;2.54;;;;;;;19.84;61.21;101114.02;;;;-51
2020/09/09 09:36:23;;;;;;;4.09;2.73;;;;;;;19.85;61.24;101114.50;;;;-52
2020/09/09 09:39:23;;;;;;;3.97;2.60;;;;;;;19.86;61.18;101114.05;;;;-51
2020/09/09 09:42:23;;;;;;;3.18;2.40;;;;;;;19.87;61.20;101110.39;;;;-59
2020/09/09 09:45:23;;;;;;;3.24;2.41;;;;;;;19.87;61.13;101106.97;;;;-59
2020/09/09 09:48:23;;;;;;;4.77;2.68;;;;;;;19.87;61.16;101104.53;;;;-52
2020/09/09 09:51:23;;;;;;;4.47;2.65;;;;;;;19.87;61.21;101098.92;;;;-52
2020/09/09 09:54:23;;;;;;;3.89;2.52;;;;;;;19.89;61.17;101094.31;;;;-51
2020/09/09 09:57:23;;;;;;;4.39;2.60;;;;;;;19.91;61.19;101100.69;;;;-57
2020/09/09 10:00:23;;;;;;;4.89;2.49;;;;;;;19.89;61.32;101090.16;;;;-60
2020/09/09 10:03:23;;;;;;;4.11;2.61;;;;;;;19.90;61.29;101089.05;;;;-59
2020/09/09 10:06:23;;;;;;;4.01;2.59;;;;;;;19.90;61.34;101087.10;;;;-59
2020/09/09 10:09:23;;;;;;;4.07;2.57;;;;;;;19.88;61.35;101089.43;;;;-51
2020/09/09 10:12:23;;;;;;;2.92;2.57;;;;;;;19.89;61.43;101080.73;;;;-51
2020/09/09 10:15:23;;;;;;;3.89;2.43;;;;;;;19.90;61.35;101078.97;;;;-52
2020/09/09 10:18:23;;;;;;;3.45;2.59;;;;;;;19.91;61.36;101078.16;;;;-53
2020/09/09 10:21:23;;;;;;;5.84;2.65;;;;;;;19.90;61.35;101074.98;;;;-57
2020/09/09 10:24:23;;;;;;;3.92;2.55;;;;;;;19.91;61.36;101063.52;;;;-58
2020/09/09 10:27:23;;;;;;;4.43;2.72;;;;;;;19.91;61.39;101058.63;;;;-53
2020/09/09 10:30:23;;;;;;;3.26;2.35;;;;;;;19.91;61.39;101052.61;;;;-58
2020/09/09 10:33:23;;;;;;;3.03;2.34;;;;;;;19.91;61.40;101051.39;;;;-59
2020/09/09 10:36:23;;;;;;;3.99;2.48;;;;;;;19.91;61.39;101048.06;;;;-59
2020/09/09 10:39:23;;;;;;;3.03;2.35;;;;;;;19.92;61.41;101046.75;;;;-52
2020/09/09 10:42:23;;;;;;;2.92;2.43;;;;;;;19.92;61.41;101046.75;;;;-52
2020/09/09 10:45:23;;;;;;;2.92;2.30;;;;;;;19.92;61.40;101046.22;;;;-52
2020/09/09 10:48:23;;;;;;;4.50;2.50;;;;;;;19.92;61.41;101039.55;;;;-59
2020/09/09 10:51:23;;;;;;;3.97;2.49;;;;;;;19.92;61.42;101031.95;;;;-59
2020/09/09 10:54:23;;;;;;;6.20;2.52;;;;;;;19.93;61.52;101030.92;;;;-52
2020/09/09 10:57:23;;;;;;;3.64;2.25;;;;;;;19.95;61.54;101028.51;;;;-53
2020/09/09 11:00:23;;;;;;;4.51;2.57;;;;;;;19.98;61.70;101023.57;;;;-54
2020/09/09 11:03:23;;;;;;;4.81;2.47;;;;;;;20.00;61.75;101019.70;;;;-56
2020/09/09 11:06:23;;;;;;;3.77;2.34;;;;;;;19.98;61.63;101010.06;;;;-56
2020/09/09 11:09:23;;;;;;;2.89;2.51;;;;;;;19.98;61.67;101006.24;;;;-56
2020/09/09 11:12:23;;;;;;;5.91;2.42;;;;;;;19.98;61.70;100998.36;;;;-56
2020/09/09 11:15:23;;;;;;;3.12;2.52;;;;;;;19.97;61.71;100991.11;;;;-56
2020/09/09 11:18:23;;;;;;;2.83;2.30;;;;;;;19.97;61.73;100985.17;;;;-56
2020/09/09 11:21:23;;;;;;;2.60;2.22;;;;;;;19.96;61.70;100980.02;;;;-56
2020/09/09 11:24:23;;;;;;;3.31;2.41;;;;;;;19.96;61.70;100981.16;;;;-56
2020/09/09 11:27:23;;;;;;;3.61;2.35;;;;;;;19.95;61.74;100972.53;;;;-56
2020/09/09 11:30:23;;;;;;;5.24;2.42;;;;;;;19.95;61.73;100971.81;;;;-56
2020/09/09 11:33:23;;;;;;;2.50;2.29;;;;;;;19.96;61.75;100970.09;;;;-56
2020/09/09 11:36:23;;;;;;;3.90;2.44;;;;;;;19.94;61.68;100962.30;;;;-56
2020/09/09 11:39:23;;;;;;;3.91;2.36;;;;;;;19.95;61.69;100954.40;;;;-56
2020/09/09 11:42:23;;;;;;;2.63;2.40;;;;;;;19.95;61.67;100961.47;;;;-56
2020/09/09 11:45:23;;;;;;;3.33;2.49;;;;;;;19.95;61.68;100959.28;;;;-57
2020/09/09 11:48:23;;;;;;;3.23;2.39;;;;;;;19.95;61.70;100955.13;;;;-56
2020/09/09 11:51:23;;;;;;;2.73;2.45;;;;;;;19.94;61.71;100951.72;;;;-56
2020/09/09 11:54:23;;;;;;;3.17;2.39;;;;;;;19.94;61.74;100945.86;;;;-56
2020/09/09 11:57:23;;;;;;;2.77;2.20;;;;;;;19.94;61.73;100944.07;;;;-57
2020/09/09 12:00:23;;;;;;;2.59;2.25;;;;;;;19.94;61.74;100941.03;;;;-56
2020/09/09 12:03:23;;;;;;;2.90;2.35;;;;;;;19.95;61.79;100941.38;;;;-56
2020/09/09 12:06:23;;;;;;;2.47;2.24;;;;;;;19.94;61.73;100936.80;;;;-57
2020/09/09 12:09:23;;;;;;;2.41;2.19;;;;;;;19.94;61.69;100935.66;;;;-56
2020/09/09 12:12:23;;;;;;;2.39;2.19;;;;;;;19.94;61.77;100934.95;;;;-56
2020/09/09 12:15:23;;;;;;;3.00;2.30;;;;;;;19.94;61.76;100927.12;;;;-57
2020/09/09 12:18:23;;;;;;;2.49;2.29;;;;;;;19.94;61.76;100923.62;;;;-56
2020/09/09 12:21:23;;;;;;;2.83;2.28;;;;;;;19.95;61.77;100924.46;;;;-56
2020/09/09 12:24:23;;;;;;;2.98;2.29;;;;;;;19.94;61.78;100919.39;;;;-56
2020/09/09 12:27:23;;;;;;;4.21;2.41;;;;;;;19.94;61.78;100914.02;;;;-55
2020/09/09 12:30:23;;;;;;;2.49;2.14;;;;;;;19.94;61.78;100912.67;;;;-56
2020/09/09 12:33:23;;;;;;;2.70;2.32;;;;;;;19.94;61.76;100907.46;;;;-56
2020/09/09 12:36:23;;;;;;;2.41;2.21;;;;;;;19.94;61.79;100905.40;;;;-56
2020/09/09 12:39:23;;;;;;;2.31;2.11;;;;;;;19.93;61.84;100899.30;;;;-55
2020/09/09 12:42:23;;;;;;;3.17;2.39;;;;;;;19.95;61.75;100895.09;;;;-56
2020/09/09 12:45:23;;;;;;;2.46;2.26;;;;;;;19.94;61.79;100889.05;;;;-56
2020/09/09 12:48:23;;;;;;;2.32;2.10;;;;;;;19.94;61.86;100882.62;;;;-56
2020/09/09 12:51:23;;;;;;;3.45;2.23;;;;;;;19.94;61.85;100881.89;;;;-56
2020/09/09 12:54:23;;;;;;;2.43;2.23;;;;;;;19.93;61.80;100877.66;;;;-57
2020/09/09 12:57:23;;;;;;;2.99;2.35;;;;;;;19.94;61.84;100875.30;;;;-57
2020/09/09 13:00:23;;;;;;;2.43;2.23;;;;;;;19.94;61.90;100868.80;;;;-50
2020/09/09 13:03:23;;;;;;;2.20;2.01;;;;;;;19.94;61.86;100863.75;;;;-50
2020/09/09 13:06:23;;;;;;;2.38;2.18;;;;;;;19.94;61.84;100864.08;;;;-51
2020/09/09 13:09:23;;;;;;;2.33;2.08;;;;;;;19.94;61.90;100860.17;;;;-50
2020/09/09 13:12:23;;;;;;;2.51;2.25;;;;;;;19.94;61.88;100853.61;;;;-50
2020/09/09 13:15:23;;;;;;;3.17;2.22;;;;;;;19.94;61.91;100847.41;;;;-51
2020/09/09 13:18:23;;;;;;;2.85;2.09;;;;;;;19.94;61.92;100843.41;;;;-51
2020/09/09 13:21:23;;;;;;;2.36;2.16;;;;;;;19.95;61.92;100839.70;;;;-51
2020/09/09 13:24:23;;;;;;;2.49;2.24;;;;;;;19.95;61.93;100833.68;;;;-50
2020/09/09 13:27:23;;;;;;;2.30;2.09;;;;;;;19.94;61.92;100828.72;;;;-50
2020/09/09 13:30:23;;;;;;;2.24;2.04;;;;;;;19.95;61.96;100827.41;;;;-50
2020/09/09 13:33:23;;;;;;;2.26;2.04;;;;;;;19.95;61.92;100831.72;;;;-50
2020/09/09 13:36:23;;;;;;;2.34;1.98;;;;;;;19.95;61.93;100829.61;;;;-50
2020/09/09 13:39:23;;;;;;;2.41;2.21;;;;;;;19.95;61.95;100820.83;;;;-50
2020/09/09 13:42:23;;;;;;;2.92;2.18;;;;;;;19.95;61.92;100814.16;;;;-50
2020/09/09 13:45:23;;;;;;;2.15;1.95;;;;;;;19.95;61.96;100807.00;;;;-50
2020/09/09 13:48:23;;;;;;;2.25;2.05;;;;;;;19.96;61.96;100810.41;;;;-57
2020/09/09 13:51:23;;;;;;;2.31;2.08;;;;;;;19.95;61.97;100799.35;;;;-56
2020/09/09 13:54:23;;;;;;;2.29;2.10;;;;;;;19.95;61.98;100797.31;;;;-56
2020/09/09 13:57:23;;;;;;;2.15;1.87;;;;;;;19.95;62.04;100794.22;;;;-56
2020/09/09 14:00:23;;;;;;;2.15;1.95;;;;;;;19.95;61.97;100790.08;;;;-57
2020/09/09 14:03:23;;;;;;;2.11;1.94;;;;;;;19.95;61.98;100786.74;;;;-57
2020/09/09 14:06:23;;;;;;;2.16;1.99;;;;;;;19.95;61.95;100780.23;;;;-56
2020/09/09 14:09:23;;;;;;;2.64;2.10;;;;;;;19.96;61.92;100777.55;;;;-57
2020/09/09 14:12:23;;;;;;;2.26;2.04;;;;;;;19.96;61.96;100778.11;;;;-56
2020/09/09 14:15:23;;;;;;;2.19;2.03;;;;;;;19.96;61.97;100772.34;;;;-50
2020/09/09 14:18:23;;;;;;;2.24;2.02;;;;;;;19.96;61.96;100765.83;;;;-50
2020/09/09 14:21:23;;;;;;;2.21;1.90;;;;;;;19.96;62.04;100767.73;;;;-50
2020/09/09 14:24:23;;;;;;;2.38;2.18;;;;;;;19.97;62.01;100760.08;;;;-56
2020/09/09 14:27:23;;;;;;;5.99;2.19;;;;;;;19.99;62.17;100765.22;;;;-52
2020/09/09 14:30:23;;;;;;;4.20;2.02;;;;;;;20.01;62.46;100762.64;;;;-50
2020/09/09 14:33:23;;;;;;;2.77;2.17;;;;;;;20.04;62.56;100759.40;;;;-52
2020/09/09 14:36:23;;;;;;;3.33;1.83;;;;;;;20.05;62.62;100752.67;;;;-54
2020/09/09 14:39:23;;;;;;;3.06;2.06;;;;;;;20.07;62.68;100754.64;;;;-54
2020/09/09 14:42:23;;;;;;;3.88;2.00;;;;;;;20.09;62.69;100749.78;;;;-57
2020/09/09 14:45:23;;;;;;;4.11;2.13;;;;;;;20.12;62.68;100750.69;;;;-58
2020/09/09 14:48:23;;;;;;;2.43;1.96;;;;;;;20.13;62.65;100749.89;;;;-49
2020/09/09 14:51:23;;;;;;;5.26;2.01;;;;;;;20.15;62.64;100748.50;;;;-51
2020/09/09 14:54:23;;;;;;;3.46;1.83;;;;;;;20.16;62.61;100744.53;;;;-49
2020/09/09 14:57:23;;;;;;;3.93;1.96;;;;;;;20.17;62.66;100738.05;;;;-51
2020/09/09 15:00:23;;;;;;;3.24;2.08;;;;;;;20.18;62.63;100736.33;;;;-51
2020/09/09 15:03:23;;;;;;;3.95;2.16;;;;;;;20.16;62.46;100731.43;;;;-50
2020/09/09 15:06:23;;;;;;;4.09;2.12;;;;;;;20.16;62.52;100730.94;;;;-57
2020/09/09 15:09:23;;;;;;;2.67;1.89;;;;;;;20.15;62.53;100731.03;;;;-57
2020/09/09 15:12:23;;;;;;;3.39;2.01;;;;;;;20.14;62.50;100726.69;;;;-57
2020/09/09 15:15:23;;;;;;;3.44;2.08;;;;;;;20.13;62.50;100720.00;;;;-48
2020/09/09 15:18:23;;;;;;;1.99;1.86;;;;;;;20.13;62.51;100714.01;;;;-48
2020/09/09 15:21:23;;;;;;;2.27;1.99;;;;;;;20.12;62.52;100711.06;;;;-51
2020/09/09 15:24:23;;;;;;;2.30;1.91;;;;;;;20.11;62.57;100709.92;;;;-48
2020/09/09 15:27:23;;;;;;;2.88;2.13;;;;;;;20.11;62.52;100707.48;;;;-56
2020/09/09 15:30:23;;;;;;;2.93;1.90;;;;;;;20.11;62.54;100695.94;;;;-48
2020/09/09 15:33:23;;;;;;;2.71;1.95;;;;;;;20.10;62.54;100690.54;;;;-56
2020/09/09 15:36:23;;;;;;;2.13;1.85;;;;;;;20.09;62.55;100691.28;;;;-56
2020/09/09 15:39:23;;;;;;;4.53;1.90;;;;;;;20.09;62.52;100685.66;;;;-48
2020/09/09 15:42:23;;;;;;;2.96;1.94;;;;;;;20.09;62.46;100685.98;;;;-48
2020/09/09 15:45:23;;;;;;;2.15;1.90;;;;;;;20.09;62.51;100687.13;;;;-48
2020/09/09 15:48:23;;;;;;;2.51;1.90;;;;;;;20.09;62.48;100687.20;;;;-48
2020/09/09 15:51:23;;;;;;;2.45;2.04;;;;;;;20.09;62.51;100685.99;;;;-48
2020/09/09 15:54:23;;;;;;;2.12;1.87;;;;;;;20.08;62.53;100687.02;;;;-51
2020/09/09 15:57:23;;;;;;;2.83;1.93;;;;;;;20.08;62.52;100687.51;;;;-50
2020/09/09 16:00:23;;;;;;;2.76;1.95;;;;;;;20.09;62.50;100683.72;;;;-48
2020/09/09 16:03:23;;;;;;;4.68;1.87;;;;;;;20.08;62.49;100681.98;;;;-57
2020/09/09 16:06:23;;;;;;;2.11;1.87;;;;;;;20.08;62.49;100686.69;;;;-51
2020/09/09 16:09:23;;;;;;;1.99;1.81;;;;;;;20.08;62.48;100685.97;;;;-48
2020/09/09 16:12:23;;;;;;;3.94;1.91;;;;;;;20.08;62.59;100685.31;;;;-50
2020/09/09 16:15:23;;;;;;;4.08;2.11;;;;;;;20.10;62.73;100688.02;;;;-45
2020/09/09 16:18:23;;;;;;;4.61;1.97;;;;;;;20.14;62.89;100689.42;;;;-49
2020/09/09 16:21:23;;;;;;;3.65;1.89;;;;;;;20.16;62.92;100690.18;;;;-49
2020/09/09 16:24:23;;;;;;;2.11;1.87;;;;;;;20.18;62.90;100692.14;;;;-55
2020/09/09 16:27:23;;;;;;;6.09;2.02;;;;;;;20.20;62.84;100692.24;;;;-47
2020/09/09 16:30:23;;;;;;;7.85;1.80;;;;;;;20.23;63.14;100695.75;;;;-62
2020/09/09 16:33:23;;;;;;;5.19;1.86;;;;;;;20.27;63.11;100697.98;;;;-53
2020/09/09 16:36:23;;;;;;;3.24;1.85;;;;;;;20.28;63.15;100695.97;;;;-48
2020/09/09 16:39:23;;;;;;;10.26;2.04;;;;;;;20.30;63.41;100695.33;;;;-52
2020/09/09 16:42:23;;;;;;;5.99;1.99;;;;;;;20.33;63.23;100702.02;;;;-57